Accueil
METAR-TAF:

METAR-TAF

Aéroports :

Aéroport international de Cardiff

Cardiff, Pays de Galles

latitude: 51-24N, longitude: 003-21W, altitude: 67 m

Observation

Le bulletin a été fait il y a 30 minutes, à 17:50 UTC
Vent 13 kt de nord/nord-ouest
Température 15°C
Humidité 63%
Pression 1016 hPa
Visibilité 10 km ou plus

METAR: EGFF 301750Z AUTO 33013KT 9999 NCD 15/08 Q1016

Heure: 19:20 (18:20 UTC)

Prévision

Le bulletin a été fait il y a 1 heure et 26 minutes, à 16:54 UTC
Prévision valable du 30 à 18 UTC au 31 à 18 UTC
Vent 18 kt de nord-ouest avec des rafales jusqu'à 28 kt
Visibilité 10 km ou plus
Nuages épars à une hauteur de 3000 ft
Evoluant progressivement
du 30 à 18 UTC au 30 à 21 UTC
Vent 8 kt de nord/nord-ouest

TAF: EGFF 301654Z 3018/3118 32018G28KT 9999 SCT030 BECMG 3018/3021 34008KT

Observations et prévisions météorologiques de plus de 4000 aéroports (messages METAR et TAF).

Les stations disponibles sont représentées par des disques jaunes et rouges sur la carte.

Passer la souris dessus pour voir le nom de la station.

Cliquer dessus pour voir les observations et prévisions météorologiques.

Pour changer de carte: cliquez sur les boutons verts avec une croix noire pour zoomer, sur le bouton vert avec un tiret pour effectuer un zoom arrière, ou sur les flèches vertes pour les cartes adjacentes.


METAR-TAF: